sensor_id;sensor_type;location;lat;lon;timestamp;P1;durP1;ratioP1;P2;durP2;ratioP2
69750;SDS011;57335;52.288;6.056;2022-09-09T00:01:49;8.35;;;3.60;;
69750;SDS011;57335;52.288;6.056;2022-09-09T00:04:31;10.20;;;3.88;;
69750;SDS011;57335;52.288;6.056;2022-09-09T00:07:14;10.13;;;3.70;;
69750;SDS011;57335;52.288;6.056;2022-09-09T00:13:05;8.38;;;3.60;;
69750;SDS011;57335;52.288;6.056;2022-09-09T00:15:54;9.57;;;3.83;;
69750;SDS011;57335;52.288;6.056;2022-09-09T00:21:21;9.77;;;4.40;;
69750;SDS011;57335;52.288;6.056;2022-09-09T00:23:56;10.85;;;3.80;;
69750;SDS011;57335;52.288;6.056;2022-09-09T00:26:43;9.15;;;3.92;;
69750;SDS011;57335;52.288;6.056;2022-09-09T00:29:24;7.63;;;3.42;;
69750;SDS011;57335;52.288;6.056;2022-09-09T00:32:11;10.85;;;3.75;;
69750;SDS011;57335;52.288;6.056;2022-09-09T00:34:55;9.63;;;3.40;;
69750;SDS011;57335;52.288;6.056;2022-09-09T00:37:25;8.60;;;3.40;;
69750;SDS011;57335;52.288;6.056;2022-09-09T00:39:53;8.85;;;2.85;;
69750;SDS011;57335;52.288;6.056;2022-09-09T00:42:26;7.18;;;2.80;;
69750;SDS011;57335;52.288;6.056;2022-09-09T00:45:25;6.63;;;2.60;;
69750;SDS011;57335;52.288;6.056;2022-09-09T00:48:10;8.68;;;2.88;;
69750;SDS011;57335;52.288;6.056;2022-09-09T00:50:45;8.13;;;2.90;;
69750;SDS011;57335;52.288;6.056;2022-09-09T00:58:32;7.97;;;3.00;;
69750;SDS011;57335;52.288;6.056;2022-09-09T01:01:05;9.02;;;2.95;;
69750;SDS011;57335;52.288;6.056;2022-09-09T01:03:37;9.40;;;3.30;;
69750;SDS011;57335;52.288;6.056;2022-09-09T01:08:48;7.70;;;2.78;;
69750;SDS011;57335;52.288;6.056;2022-09-09T01:11:26;8.20;;;3.00;;
69750;SDS011;57335;52.288;6.056;2022-09-09T01:19:57;9.15;;;3.30;;
69750;SDS011;57335;52.288;6.056;2022-09-09T01:22:34;8.23;;;3.30;;
69750;SDS011;57335;52.288;6.056;2022-09-09T01:25:27;7.75;;;3.20;;
69750;SDS011;57335;52.288;6.056;2022-09-09T01:28:03;9.13;;;2.97;;
69750;SDS011;57335;52.288;6.056;2022-09-09T01:30:37;9.85;;;3.53;;
69750;SDS011;57335;52.288;6.056;2022-09-09T01:33:07;8.90;;;3.45;;
69750;SDS011;57335;52.288;6.056;2022-09-09T01:35:43;9.07;;;3.30;;
69750;SDS011;57335;52.288;6.056;2022-09-09T01:38:18;9.75;;;3.67;;
69750;SDS011;57335;52.288;6.056;2022-09-09T01:40:44;8.38;;;3.35;;
69750;SDS011;57335;52.288;6.056;2022-09-09T01:43:11;8.63;;;3.38;;
69750;SDS011;57335;52.288;6.056;2022-09-09T01:45:38;10.98;;;4.00;;
69750;SDS011;57335;52.288;6.056;2022-09-09T01:48:07;9.85;;;3.53;;
69750;SDS011;57335;52.288;6.056;2022-09-09T01:50:33;9.50;;;3.75;;
69750;SDS011;57335;52.288;6.056;2022-09-09T01:53:00;8.63;;;3.63;;
69750;SDS011;57335;52.288;6.056;2022-09-09T01:55:30;9.23;;;3.95;;
69750;SDS011;57335;52.288;6.056;2022-09-09T02:01:03;9.35;;;3.63;;
69750;SDS011;57335;52.288;6.056;2022-09-09T02:03:32;10.82;;;3.65;;
69750;SDS011;57335;52.288;6.056;2022-09-09T02:06:18;9.85;;;3.67;;
69750;SDS011;57335;52.288;6.056;2022-09-09T02:08:52;10.10;;;4.10;;
69750;SDS011;57335;52.288;6.056;2022-09-09T02:13:53;11.15;;;4.07;;
69750;SDS011;57335;52.288;6.056;2022-09-09T02:16:44;11.73;;;4.20;;
69750;SDS011;57335;52.288;6.056;2022-09-09T02:22:14;10.68;;;4.47;;
69750;SDS011;57335;52.288;6.056;2022-09-09T02:24:43;11.23;;;4.22;;
69750;SDS011;57335;52.288;6.056;2022-09-09T02:27:10;13.15;;;4.55;;
69750;SDS011;57335;52.288;6.056;2022-09-09T02:29:39;9.95;;;3.92;;
69750;SDS011;57335;52.288;6.056;2022-09-09T02:32:28;13.30;;;4.97;;
69750;SDS011;57335;52.288;6.056;2022-09-09T02:34:56;10.98;;;4.70;;
69750;SDS011;57335;52.288;6.056;2022-09-09T02:37:29;12.63;;;4.80;;
69750;SDS011;57335;52.288;6.056;2022-09-09T02:40:02;12.25;;;4.38;;
69750;SDS011;57335;52.288;6.056;2022-09-09T02:42:30;9.75;;;3.90;;
69750;SDS011;57335;52.288;6.056;2022-09-09T02:44:57;10.98;;;4.18;;
69750;SDS011;57335;52.288;6.056;2022-09-09T02:47:34;11.32;;;4.13;;
69750;SDS011;57335;52.288;6.056;2022-09-09T02:55:48;15.27;;;5.13;;
69750;SDS011;57335;52.288;6.056;2022-09-09T02:58:35;12.70;;;4.88;;
69750;SDS011;57335;52.288;6.056;2022-09-09T03:01:02;11.65;;;4.57;;
69750;SDS011;57335;52.288;6.056;2022-09-09T03:03:29;12.38;;;5.00;;
69750;SDS011;57335;52.288;6.056;2022-09-09T03:05:55;13.80;;;5.00;;
69750;SDS011;57335;52.288;6.056;2022-09-09T03:08:22;11.70;;;4.80;;
69750;SDS011;57335;52.288;6.056;2022-09-09T03:10:48;12.75;;;4.90;;
69750;SDS011;57335;52.288;6.056;2022-09-09T03:13:15;15.43;;;5.63;;
69750;SDS011;57335;52.288;6.056;2022-09-09T03:15:41;17.52;;;6.10;;
69750;SDS011;57335;52.288;6.056;2022-09-09T03:18:08;12.73;;;5.20;;
69750;SDS011;57335;52.288;6.056;2022-09-09T03:20:34;12.38;;;5.30;;
69750;SDS011;57335;52.288;6.056;2022-09-09T03:23:01;13.07;;;5.35;;
69750;SDS011;57335;52.288;6.056;2022-09-09T03:25:27;15.60;;;5.50;;
69750;SDS011;57335;52.288;6.056;2022-09-09T03:27:54;13.82;;;4.80;;
69750;SDS011;57335;52.288;6.056;2022-09-09T03:30:22;12.82;;;5.20;;
69750;SDS011;57335;52.288;6.056;2022-09-09T03:32:50;9.95;;;4.32;;
69750;SDS011;57335;52.288;6.056;2022-09-09T03:35:16;11.60;;;4.60;;
69750;SDS011;57335;52.288;6.056;2022-09-09T03:37:44;12.13;;;4.90;;
69750;SDS011;57335;52.288;6.056;2022-09-09T03:40:11;11.48;;;4.00;;
69750;SDS011;57335;52.288;6.056;2022-09-09T03:42:38;13.98;;;4.22;;
69750;SDS011;57335;52.288;6.056;2022-09-09T03:45:06;10.38;;;4.38;;
69750;SDS011;57335;52.288;6.056;2022-09-09T03:47:34;11.60;;;4.80;;
69750;SDS011;57335;52.288;6.056;2022-09-09T03:50:01;10.40;;;4.28;;
69750;SDS011;57335;52.288;6.056;2022-09-09T03:52:27;13.13;;;5.00;;
69750;SDS011;57335;52.288;6.056;2022-09-09T03:54:54;13.63;;;4.35;;
69750;SDS011;57335;52.288;6.056;2022-09-09T03:57:21;14.20;;;4.70;;
69750;SDS011;57335;52.288;6.056;2022-09-09T03:59:47;11.77;;;4.20;;
69750;SDS011;57335;52.288;6.056;2022-09-09T04:02:13;13.30;;;4.63;;
69750;SDS011;57335;52.288;6.056;2022-09-09T04:04:40;14.25;;;4.47;;
69750;SDS011;57335;52.288;6.056;2022-09-09T04:07:06;12.38;;;4.53;;
69750;SDS011;57335;52.288;6.056;2022-09-09T04:09:33;10.82;;;4.32;;
69750;SDS011;57335;52.288;6.056;2022-09-09T04:11:59;13.57;;;4.38;;
69750;SDS011;57335;52.288;6.056;2022-09-09T04:14:26;13.43;;;4.88;;
69750;SDS011;57335;52.288;6.056;2022-09-09T04:16:53;13.52;;;4.50;;
69750;SDS011;57335;52.288;6.056;2022-09-09T04:19:19;13.25;;;4.90;;
69750;SDS011;57335;52.288;6.056;2022-09-09T04:21:46;11.90;;;4.47;;
69750;SDS011;57335;52.288;6.056;2022-09-09T04:24:12;14.35;;;4.90;;
69750;SDS011;57335;52.288;6.056;2022-09-09T04:26:39;15.27;;;5.72;;
69750;SDS011;57335;52.288;6.056;2022-09-09T04:29:05;15.88;;;5.70;;
69750;SDS011;57335;52.288;6.056;2022-09-09T04:31:32;15.60;;;5.25;;
69750;SDS011;57335;52.288;6.056;2022-09-09T04:33:58;16.77;;;5.68;;
69750;SDS011;57335;52.288;6.056;2022-09-09T04:36:24;15.90;;;6.47;;
69750;SDS011;57335;52.288;6.056;2022-09-09T04:38:51;14.32;;;5.22;;
69750;SDS011;57335;52.288;6.056;2022-09-09T04:41:17;16.77;;;6.28;;
69750;SDS011;57335;52.288;6.056;2022-09-09T04:43:44;15.90;;;6.32;;
69750;SDS011;57335;52.288;6.056;2022-09-09T04:46:10;17.75;;;7.00;;
69750;SDS011;57335;52.288;6.056;2022-09-09T04:48:37;14.73;;;5.93;;
69750;SDS011;57335;52.288;6.056;2022-09-09T04:51:04;13.68;;;5.68;;
69750;SDS011;57335;52.288;6.056;2022-09-09T04:53:32;16.20;;;6.40;;
69750;SDS011;57335;52.288;6.056;2022-09-09T04:56:09;14.05;;;6.15;;
69750;SDS011;57335;52.288;6.056;2022-09-09T04:58:39;16.30;;;6.38;;
69750;SDS011;57335;52.288;6.056;2022-09-09T05:01:07;14.50;;;6.13;;
69750;SDS011;57335;52.288;6.056;2022-09-09T05:03:34;13.68;;;6.20;;
69750;SDS011;57335;52.288;6.056;2022-09-09T05:06:05;16.92;;;6.68;;
69750;SDS011;57335;52.288;6.056;2022-09-09T05:08:33;15.52;;;6.30;;
69750;SDS011;57335;52.288;6.056;2022-09-09T05:10:59;14.93;;;5.82;;
69750;SDS011;57335;52.288;6.056;2022-09-09T05:13:26;14.45;;;6.40;;
69750;SDS011;57335;52.288;6.056;2022-09-09T05:15:53;16.10;;;6.25;;
69750;SDS011;57335;52.288;6.056;2022-09-09T05:18:20;17.00;;;6.63;;
69750;SDS011;57335;52.288;6.056;2022-09-09T05:20:46;15.80;;;6.45;;
69750;SDS011;57335;52.288;6.056;2022-09-09T05:23:13;14.13;;;5.90;;
69750;SDS011;57335;52.288;6.056;2022-09-09T05:25:39;13.90;;;6.35;;
69750;SDS011;57335;52.288;6.056;2022-09-09T05:28:06;13.73;;;5.70;;
69750;SDS011;57335;52.288;6.056;2022-09-09T05:30:32;14.13;;;5.80;;
69750;SDS011;57335;52.288;6.056;2022-09-09T05:32:59;14.90;;;5.82;;
69750;SDS011;57335;52.288;6.056;2022-09-09T05:35:26;14.82;;;6.25;;
69750;SDS011;57335;52.288;6.056;2022-09-09T05:37:53;16.02;;;6.28;;
69750;SDS011;57335;52.288;6.056;2022-09-09T05:40:19;13.25;;;6.03;;
69750;SDS011;57335;52.288;6.056;2022-09-09T05:42:46;13.95;;;6.60;;
69750;SDS011;57335;52.288;6.056;2022-09-09T05:45:12;16.65;;;6.05;;
69750;SDS011;57335;52.288;6.056;2022-09-09T05:47:38;13.55;;;5.88;;
69750;SDS011;57335;52.288;6.056;2022-09-09T05:50:05;15.05;;;6.05;;
69750;SDS011;57335;52.288;6.056;2022-09-09T05:52:31;12.85;;;5.55;;
69750;SDS011;57335;52.288;6.056;2022-09-09T05:54:58;13.20;;;5.25;;
69750;SDS011;57335;52.288;6.056;2022-09-09T05:57:24;13.18;;;5.22;;
69750;SDS011;57335;52.288;6.056;2022-09-09T05:59:51;12.63;;;5.30;;
69750;SDS011;57335;52.288;6.056;2022-09-09T06:02:17;13.98;;;5.60;;
69750;SDS011;57335;52.288;6.056;2022-09-09T06:04:44;12.50;;;5.32;;
69750;SDS011;57335;52.288;6.056;2022-09-09T06:07:10;12.77;;;5.50;;
69750;SDS011;57335;52.288;6.056;2022-09-09T06:09:37;11.65;;;4.90;;
69750;SDS011;57335;52.288;6.056;2022-09-09T06:12:03;13.40;;;5.40;;
69750;SDS011;57335;52.288;6.056;2022-09-09T06:14:30;11.73;;;5.05;;
69750;SDS011;57335;52.288;6.056;2022-09-09T06:16:56;12.52;;;4.75;;
69750;SDS011;57335;52.288;6.056;2022-09-09T06:19:22;12.30;;;4.70;;
69750;SDS011;57335;52.288;6.056;2022-09-09T06:21:49;11.90;;;4.88;;
69750;SDS011;57335;52.288;6.056;2022-09-09T06:24:15;12.68;;;4.75;;
69750;SDS011;57335;52.288;6.056;2022-09-09T06:26:42;12.68;;;5.28;;
69750;SDS011;57335;52.288;6.056;2022-09-09T06:29:09;11.45;;;4.57;;
69750;SDS011;57335;52.288;6.056;2022-09-09T06:31:36;11.25;;;4.30;;
69750;SDS011;57335;52.288;6.056;2022-09-09T06:34:04;10.48;;;3.97;;
69750;SDS011;57335;52.288;6.056;2022-09-09T06:36:33;11.65;;;3.78;;
69750;SDS011;57335;52.288;6.056;2022-09-09T06:39:00;9.25;;;3.58;;
69750;SDS011;57335;52.288;6.056;2022-09-09T06:41:28;9.05;;;3.28;;
69750;SDS011;57335;52.288;6.056;2022-09-09T06:43:56;11.57;;;3.20;;
69750;SDS011;57335;52.288;6.056;2022-09-09T06:46:24;8.77;;;3.30;;
69750;SDS011;57335;52.288;6.056;2022-09-09T06:48:52;9.13;;;3.25;;
69750;SDS011;57335;52.288;6.056;2022-09-09T06:51:19;9.00;;;3.55;;
69750;SDS011;57335;52.288;6.056;2022-09-09T06:53:47;8.07;;;3.20;;
69750;SDS011;57335;52.288;6.056;2022-09-09T06:56:17;9.23;;;3.45;;
69750;SDS011;57335;52.288;6.056;2022-09-09T06:59:01;8.57;;;3.70;;
69750;SDS011;57335;52.288;6.056;2022-09-09T07:01:33;9.32;;;3.47;;
69750;SDS011;57335;52.288;6.056;2022-09-09T07:04:01;9.15;;;3.53;;
69750;SDS011;57335;52.288;6.056;2022-09-09T07:06:31;10.77;;;3.22;;
69750;SDS011;57335;52.288;6.056;2022-09-09T07:08:59;8.80;;;3.30;;
69750;SDS011;57335;52.288;6.056;2022-09-09T07:11:28;9.20;;;3.30;;
69750;SDS011;57335;52.288;6.056;2022-09-09T07:13:57;7.30;;;3.30;;
69750;SDS011;57335;52.288;6.056;2022-09-09T07:16:24;11.48;;;3.72;;
69750;SDS011;57335;52.288;6.056;2022-09-09T07:18:51;9.13;;;3.63;;
69750;SDS011;57335;52.288;6.056;2022-09-09T07:21:18;8.60;;;3.33;;
69750;SDS011;57335;52.288;6.056;2022-09-09T07:23:45;9.68;;;3.40;;
69750;SDS011;57335;52.288;6.056;2022-09-09T07:26:16;9.20;;;3.10;;
69750;SDS011;57335;52.288;6.056;2022-09-09T07:28:44;8.98;;;3.30;;
69750;SDS011;57335;52.288;6.056;2022-09-09T07:31:22;6.80;;;2.67;;
69750;SDS011;57335;52.288;6.056;2022-09-09T07:33:50;8.38;;;2.80;;
69750;SDS011;57335;52.288;6.056;2022-09-09T07:36:18;9.20;;;3.10;;
69750;SDS011;57335;52.288;6.056;2022-09-09T07:38:47;9.00;;;3.17;;
69750;SDS011;57335;52.288;6.056;2022-09-09T07:41:17;8.88;;;3.15;;
69750;SDS011;57335;52.288;6.056;2022-09-09T07:43:49;10.23;;;3.22;;
69750;SDS011;57335;52.288;6.056;2022-09-09T07:46:17;9.65;;;3.00;;
69750;SDS011;57335;52.288;6.056;2022-09-09T07:48:46;10.32;;;2.83;;
69750;SDS011;57335;52.288;6.056;2022-09-09T07:51:15;11.18;;;3.17;;
69750;SDS011;57335;52.288;6.056;2022-09-09T07:53:42;9.50;;;3.17;;
69750;SDS011;57335;52.288;6.056;2022-09-09T07:56:10;7.22;;;2.70;;
69750;SDS011;57335;52.288;6.056;2022-09-09T07:58:39;8.93;;;3.08;;
69750;SDS011;57335;52.288;6.056;2022-09-09T08:01:17;10.23;;;3.10;;
69750;SDS011;57335;52.288;6.056;2022-09-09T08:03:47;8.90;;;2.65;;
69750;SDS011;57335;52.288;6.056;2022-09-09T08:06:29;9.57;;;3.47;;
69750;SDS011;57335;52.288;6.056;2022-09-09T08:08:58;9.57;;;2.63;;
69750;SDS011;57335;52.288;6.056;2022-09-09T08:11:26;11.48;;;2.97;;
69750;SDS011;57335;52.288;6.056;2022-09-09T08:13:54;8.02;;;2.60;;
69750;SDS011;57335;52.288;6.056;2022-09-09T08:16:28;8.90;;;2.70;;
69750;SDS011;57335;52.288;6.056;2022-09-09T08:18:57;9.90;;;2.63;;
69750;SDS011;57335;52.288;6.056;2022-09-09T08:21:25;7.88;;;2.60;;
69750;SDS011;57335;52.288;6.056;2022-09-09T08:23:53;9.60;;;2.97;;
69750;SDS011;57335;52.288;6.056;2022-09-09T08:26:24;7.15;;;2.65;;
69750;SDS011;57335;52.288;6.056;2022-09-09T08:28:56;10.18;;;2.60;;
69750;SDS011;57335;52.288;6.056;2022-09-09T08:33:51;8.73;;;2.67;;
69750;SDS011;57335;52.288;6.056;2022-09-09T08:36:22;13.05;;;2.72;;
69750;SDS011;57335;52.288;6.056;2022-09-09T08:38:50;9.10;;;2.90;;
69750;SDS011;57335;52.288;6.056;2022-09-09T08:52:21;8.82;;;2.65;;
69750;SDS011;57335;52.288;6.056;2022-09-09T08:54:52;8.07;;;2.60;;
69750;SDS011;57335;52.288;6.056;2022-09-09T08:57:23;6.68;;;2.50;;
69750;SDS011;57335;52.288;6.056;2022-09-09T08:59:52;10.27;;;2.38;;
69750;SDS011;57335;52.288;6.056;2022-09-09T09:02:32;10.02;;;2.13;;
69750;SDS011;57335;52.288;6.056;2022-09-09T09:05:16;8.57;;;2.60;;
69750;SDS011;57335;52.288;6.056;2022-09-09T09:10:47;7.50;;;2.65;;
69750;SDS011;57335;52.288;6.056;2022-09-09T09:19:14;9.10;;;2.60;;
69750;SDS011;57335;52.288;6.056;2022-09-09T09:21:43;9.93;;;2.60;;
69750;SDS011;57335;52.288;6.056;2022-09-09T09:24:16;8.80;;;2.30;;
69750;SDS011;57335;52.288;6.056;2022-09-09T09:26:47;8.80;;;2.95;;
69750;SDS011;57335;52.288;6.056;2022-09-09T09:29:17;6.47;;;2.50;;
69750;SDS011;57335;52.288;6.056;2022-09-09T09:31:46;6.63;;;2.50;;
69750;SDS011;57335;52.288;6.056;2022-09-09T09:34:17;10.80;;;2.50;;
69750;SDS011;57335;52.288;6.056;2022-09-09T09:36:44;11.32;;;2.50;;
69750;SDS011;57335;52.288;6.056;2022-09-09T09:39:25;6.72;;;2.22;;
69750;SDS011;57335;52.288;6.056;2022-09-09T09:42:13;9.82;;;2.33;;
69750;SDS011;57335;52.288;6.056;2022-09-09T09:44:46;7.55;;;2.50;;
69750;SDS011;57335;52.288;6.056;2022-09-09T09:47:17;6.18;;;2.47;;
69750;SDS011;57335;52.288;6.056;2022-09-09T09:49:57;9.73;;;2.70;;
69750;SDS011;57335;52.288;6.056;2022-09-09T09:52:25;8.40;;;2.30;;
69750;SDS011;57335;52.288;6.056;2022-09-09T09:54:53;9.82;;;3.08;;
69750;SDS011;57335;52.288;6.056;2022-09-09T09:57:26;9.43;;;2.38;;
69750;SDS011;57335;52.288;6.056;2022-09-09T10:00:29;11.00;;;2.50;;
69750;SDS011;57335;52.288;6.056;2022-09-09T10:02:49;7.35;;;2.40;;
69750;SDS011;57335;52.288;6.056;2022-09-09T10:05:17;7.60;;;2.42;;
69750;SDS011;57335;52.288;6.056;2022-09-09T10:10:42;10.55;;;2.42;;
69750;SDS011;57335;52.288;6.056;2022-09-09T10:19:04;9.23;;;2.50;;
69750;SDS011;57335;52.288;6.056;2022-09-09T10:27:35;8.13;;;2.10;;
69750;SDS011;57335;52.288;6.056;2022-09-09T10:30:16;7.05;;;1.85;;
69750;SDS011;57335;52.288;6.056;2022-09-09T10:32:45;7.82;;;2.00;;
69750;SDS011;57335;52.288;6.056;2022-09-09T10:38:18;8.25;;;2.08;;
69750;SDS011;57335;52.288;6.056;2022-09-09T10:51:01;7.32;;;2.20;;
69750;SDS011;57335;52.288;6.056;2022-09-09T10:53:48;5.57;;;1.80;;
69750;SDS011;57335;52.288;6.056;2022-09-09T10:56:23;5.82;;;1.67;;
69750;SDS011;57335;52.288;6.056;2022-09-09T10:58:52;6.25;;;1.85;;
69750;SDS011;57335;52.288;6.056;2022-09-09T11:01:58;7.35;;;1.80;;
69750;SDS011;57335;52.288;6.056;2022-09-09T11:04:33;6.03;;;1.95;;
69750;SDS011;57335;52.288;6.056;2022-09-09T11:07:05;7.07;;;2.00;;
69750;SDS011;57335;52.288;6.056;2022-09-09T11:09:38;7.53;;;1.90;;
69750;SDS011;57335;52.288;6.056;2022-09-09T11:12:12;5.32;;;1.45;;
69750;SDS011;57335;52.288;6.056;2022-09-09T11:14:49;7.65;;;2.00;;
69750;SDS011;57335;52.288;6.056;2022-09-09T11:17:22;7.05;;;2.08;;
69750;SDS011;57335;52.288;6.056;2022-09-09T11:19:57;7.85;;;2.00;;
69750;SDS011;57335;52.288;6.056;2022-09-09T11:22:27;6.57;;;1.77;;
69750;SDS011;57335;52.288;6.056;2022-09-09T11:25:47;7.22;;;1.90;;
69750;SDS011;57335;52.288;6.056;2022-09-09T11:36:32;5.63;;;1.42;;
69750;SDS011;57335;52.288;6.056;2022-09-09T11:41:45;6.90;;;1.58;;
69750;SDS011;57335;52.288;6.056;2022-09-09T11:44:12;7.50;;;1.65;;
69750;SDS011;57335;52.288;6.056;2022-09-09T11:46:45;7.00;;;1.80;;
69750;SDS011;57335;52.288;6.056;2022-09-09T11:55:09;5.22;;;1.92;;
69750;SDS011;57335;52.288;6.056;2022-09-09T11:57:37;6.70;;;1.77;;
69750;SDS011;57335;52.288;6.056;2022-09-09T12:00:05;5.78;;;1.70;;
69750;SDS011;57335;52.288;6.056;2022-09-09T12:02:32;6.22;;;2.13;;
69750;SDS011;57335;52.288;6.056;2022-09-09T12:05:00;6.47;;;1.90;;
69750;SDS011;57335;52.288;6.056;2022-09-09T12:07:33;5.93;;;2.10;;
69750;SDS011;57335;52.288;6.056;2022-09-09T12:10:05;10.95;;;2.35;;
69750;SDS011;57335;52.288;6.056;2022-09-09T12:12:47;6.25;;;2.25;;
69750;SDS011;57335;52.288;6.056;2022-09-09T12:15:18;6.47;;;2.00;;
69750;SDS011;57335;52.288;6.056;2022-09-09T12:17:52;9.23;;;2.58;;
69750;SDS011;57335;52.288;6.056;2022-09-09T12:34:09;5.43;;;1.70;;
69750;SDS011;57335;52.288;6.056;2022-09-09T12:36:37;5.03;;;1.73;;
69750;SDS011;57335;52.288;6.056;2022-09-09T12:41:57;4.03;;;1.42;;
69750;SDS011;57335;52.288;6.056;2022-09-09T12:44:24;4.75;;;1.55;;
69750;SDS011;57335;52.288;6.056;2022-09-09T12:46:52;4.90;;;1.50;;
69750;SDS011;57335;52.288;6.056;2022-09-09T12:49:24;4.50;;;1.50;;
69750;SDS011;57335;52.288;6.056;2022-09-09T12:51:54;5.75;;;1.60;;
69750;SDS011;57335;52.288;6.056;2022-09-09T12:54:21;4.85;;;1.60;;
69750;SDS011;57335;52.288;6.056;2022-09-09T12:56:47;6.75;;;1.50;;
69750;SDS011;57335;52.288;6.056;2022-09-09T12:59:23;5.13;;;1.60;;
69750;SDS011;57335;52.288;6.056;2022-09-09T13:01:55;3.58;;;1.40;;
69750;SDS011;57335;52.288;6.056;2022-09-09T13:04:22;5.63;;;2.40;;
69750;SDS011;57335;52.288;6.056;2022-09-09T13:06:49;5.25;;;1.63;;
69750;SDS011;57335;52.288;6.056;2022-09-09T13:09:15;4.80;;;1.70;;
69750;SDS011;57335;52.288;6.056;2022-09-09T13:11:49;6.70;;;2.08;;
69750;SDS011;57335;52.288;6.056;2022-09-09T13:16:58;5.60;;;1.42;;
69750;SDS011;57335;52.288;6.056;2022-09-09T13:22:11;5.63;;;1.63;;
69750;SDS011;57335;52.288;6.056;2022-09-09T13:24:46;7.47;;;1.90;;
69750;SDS011;57335;52.288;6.056;2022-09-09T13:27:51;7.85;;;1.80;;
69750;SDS011;57335;52.288;6.056;2022-09-09T13:30:25;4.07;;;1.38;;
69750;SDS011;57335;52.288;6.056;2022-09-09T13:35:47;5.53;;;1.60;;
69750;SDS011;57335;52.288;6.056;2022-09-09T13:38:16;4.72;;;1.50;;
69750;SDS011;57335;52.288;6.056;2022-09-09T13:40:52;4.57;;;1.67;;
69750;SDS011;57335;52.288;6.056;2022-09-09T13:43:21;4.72;;;1.73;;
69750;SDS011;57335;52.288;6.056;2022-09-09T13:45:55;5.28;;;1.60;;
69750;SDS011;57335;52.288;6.056;2022-09-09T13:48:24;5.38;;;1.60;;
69750;SDS011;57335;52.288;6.056;2022-09-09T13:50:55;5.43;;;1.80;;
69750;SDS011;57335;52.288;6.056;2022-09-09T13:53:23;3.03;;;1.42;;
69750;SDS011;57335;52.288;6.056;2022-09-09T13:55:49;3.60;;;1.60;;
69750;SDS011;57335;52.288;6.056;2022-09-09T13:58:18;5.25;;;1.77;;
69750;SDS011;57335;52.288;6.056;2022-09-09T14:00:45;4.55;;;1.42;;
69750;SDS011;57335;52.288;6.056;2022-09-09T14:03:12;4.32;;;1.80;;
69750;SDS011;57335;52.288;6.056;2022-09-09T14:05:39;6.03;;;1.83;;
69750;SDS011;57335;52.288;6.056;2022-09-09T14:08:06;3.88;;;1.77;;
69750;SDS011;57335;52.288;6.056;2022-09-09T14:10:33;6.13;;;2.05;;
69750;SDS011;57335;52.288;6.056;2022-09-09T14:13:00;6.22;;;2.45;;
69750;SDS011;57335;52.288;6.056;2022-09-09T14:15:26;5.28;;;1.83;;
69750;SDS011;57335;52.288;6.056;2022-09-09T14:17:52;5.05;;;1.60;;
69750;SDS011;57335;52.288;6.056;2022-09-09T14:20:19;8.32;;;2.20;;
69750;SDS011;57335;52.288;6.056;2022-09-09T14:22:45;6.47;;;1.90;;
69750;SDS011;57335;52.288;6.056;2022-09-09T14:25:12;5.18;;;1.80;;
69750;SDS011;57335;52.288;6.056;2022-09-09T14:27:39;6.78;;;1.90;;
69750;SDS011;57335;52.288;6.056;2022-09-09T14:30:06;4.15;;;1.63;;
69750;SDS011;57335;52.288;6.056;2022-09-09T14:32:33;5.45;;;1.98;;
69750;SDS011;57335;52.288;6.056;2022-09-09T14:34:59;8.68;;;2.40;;
69750;SDS011;57335;52.288;6.056;2022-09-09T14:37:26;7.90;;;2.20;;
69750;SDS011;57335;52.288;6.056;2022-09-09T14:39:53;5.82;;;1.90;;
69750;SDS011;57335;52.288;6.056;2022-09-09T14:42:20;6.38;;;1.90;;
69750;SDS011;57335;52.288;6.056;2022-09-09T14:44:46;8.27;;;1.85;;
69750;SDS011;57335;52.288;6.056;2022-09-09T14:47:12;6.68;;;1.92;;
69750;SDS011;57335;52.288;6.056;2022-09-09T14:49:39;5.65;;;2.10;;
69750;SDS011;57335;52.288;6.056;2022-09-09T14:52:10;6.45;;;1.90;;
69750;SDS011;57335;52.288;6.056;2022-09-09T14:54:36;5.05;;;2.03;;
69750;SDS011;57335;52.288;6.056;2022-09-09T14:57:02;4.28;;;2.00;;
69750;SDS011;57335;52.288;6.056;2022-09-09T14:59:29;5.32;;;1.95;;
69750;SDS011;57335;52.288;6.056;2022-09-09T15:01:55;6.72;;;2.45;;
69750;SDS011;57335;52.288;6.056;2022-09-09T15:04:22;6.55;;;1.90;;
69750;SDS011;57335;52.288;6.056;2022-09-09T15:06:48;4.50;;;1.60;;
69750;SDS011;57335;52.288;6.056;2022-09-09T15:09:15;6.63;;;2.30;;
69750;SDS011;57335;52.288;6.056;2022-09-09T15:11:41;6.43;;;2.00;;
69750;SDS011;57335;52.288;6.056;2022-09-09T15:14:08;5.75;;;2.00;;
69750;SDS011;57335;52.288;6.056;2022-09-09T15:16:35;5.90;;;2.10;;
69750;SDS011;57335;52.288;6.056;2022-09-09T15:19:02;5.70;;;2.10;;
69750;SDS011;57335;52.288;6.056;2022-09-09T15:21:30;6.60;;;2.17;;
69750;SDS011;57335;52.288;6.056;2022-09-09T15:23:59;5.95;;;2.22;;
69750;SDS011;57335;52.288;6.056;2022-09-09T15:26:25;6.28;;;2.20;;
69750;SDS011;57335;52.288;6.056;2022-09-09T15:28:52;4.80;;;2.10;;
69750;SDS011;57335;52.288;6.056;2022-09-09T15:31:20;6.45;;;2.13;;
69750;SDS011;57335;52.288;6.056;2022-09-09T15:33:52;7.65;;;2.33;;
69750;SDS011;57335;52.288;6.056;2022-09-09T15:36:25;6.13;;;1.95;;
69750;SDS011;57335;52.288;6.056;2022-09-09T15:38:51;7.20;;;2.08;;
69750;SDS011;57335;52.288;6.056;2022-09-09T15:41:19;6.97;;;2.40;;
69750;SDS011;57335;52.288;6.056;2022-09-09T15:43:47;6.63;;;2.30;;
69750;SDS011;57335;52.288;6.056;2022-09-09T15:46:25;8.90;;;2.33;;
69750;SDS011;57335;52.288;6.056;2022-09-09T15:48:55;5.75;;;2.15;;
69750;SDS011;57335;52.288;6.056;2022-09-09T15:51:29;6.13;;;2.30;;
69750;SDS011;57335;52.288;6.056;2022-09-09T15:54:09;7.07;;;2.40;;
69750;SDS011;57335;52.288;6.056;2022-09-09T15:56:37;6.93;;;2.30;;
69750;SDS011;57335;52.288;6.056;2022-09-09T15:59:03;5.10;;;2.03;;
69750;SDS011;57335;52.288;6.056;2022-09-09T16:01:30;9.38;;;2.50;;
69750;SDS011;57335;52.288;6.056;2022-09-09T16:03:57;6.63;;;2.17;;
69750;SDS011;57335;52.288;6.056;2022-09-09T16:06:24;6.55;;;2.35;;
69750;SDS011;57335;52.288;6.056;2022-09-09T16:08:52;5.30;;;2.33;;
69750;SDS011;57335;52.288;6.056;2022-09-09T16:11:20;8.70;;;2.35;;
69750;SDS011;57335;52.288;6.056;2022-09-09T16:13:49;7.13;;;2.50;;
69750;SDS011;57335;52.288;6.056;2022-09-09T16:16:18;8.98;;;2.80;;
69750;SDS011;57335;52.288;6.056;2022-09-09T16:18:46;6.40;;;2.30;;
69750;SDS011;57335;52.288;6.056;2022-09-09T16:21:15;5.47;;;2.22;;
69750;SDS011;57335;52.288;6.056;2022-09-09T16:23:44;8.48;;;2.30;;
69750;SDS011;57335;52.288;6.056;2022-09-09T16:26:11;7.35;;;2.30;;
69750;SDS011;57335;52.288;6.056;2022-09-09T16:28:38;6.55;;;2.28;;
69750;SDS011;57335;52.288;6.056;2022-09-09T16:31:06;6.13;;;2.33;;
69750;SDS011;57335;52.288;6.056;2022-09-09T16:33:33;4.68;;;2.10;;
69750;SDS011;57335;52.288;6.056;2022-09-09T16:36:07;7.97;;;2.40;;
69750;SDS011;57335;52.288;6.056;2022-09-09T16:38:38;5.57;;;2.00;;
69750;SDS011;57335;52.288;6.056;2022-09-09T16:41:05;7.90;;;2.60;;
69750;SDS011;57335;52.288;6.056;2022-09-09T16:43:33;7.38;;;2.38;;
69750;SDS011;57335;52.288;6.056;2022-09-09T16:46:00;7.82;;;2.40;;
69750;SDS011;57335;52.288;6.056;2022-09-09T16:48:30;6.20;;;2.25;;
69750;SDS011;57335;52.288;6.056;2022-09-09T16:51:07;7.47;;;2.50;;
69750;SDS011;57335;52.288;6.056;2022-09-09T16:53:37;6.25;;;2.50;;
69750;SDS011;57335;52.288;6.056;2022-09-09T16:56:06;7.03;;;2.20;;
69750;SDS011;57335;52.288;6.056;2022-09-09T16:58:34;5.97;;;2.28;;
69750;SDS011;57335;52.288;6.056;2022-09-09T17:01:01;6.35;;;2.30;;
69750;SDS011;57335;52.288;6.056;2022-09-09T17:03:27;5.95;;;2.17;;
69750;SDS011;57335;52.288;6.056;2022-09-09T17:05:54;6.95;;;2.40;;
69750;SDS011;57335;52.288;6.056;2022-09-09T17:08:20;9.00;;;2.72;;